Terminal Aerodrome Forecast
Issued by NWS

Home | Current Version | Previous Version | Text Only | Print | Product List | Glossary On
Versions: 1 2 3 4 5 6 7 8 9 10 11 12
000
FTUS45 KRIW 262300
TAFBPI
TAF
KBPI 262320Z 2700/2724 VRB10G18KT P6SM VCTS SCT035 BKN060CB
     FM270200 34007KT P6SM VCSH BKN060
     FM270700 VRB04KT P6SM VCFG FEW004 SCT080
     FM271600 VRB05KT P6SM BKN070 OVC100
     FM272000 VRB12G18KT P6SM VCTS SCT040CB BKN070=

USA.gov is the U.S. government's official web portal to all federal, state and local government web resources and services.